Tuesday, November 21, 2017, 10:52 PM EST
Back to Local

KAOO, Altoona-blair County Airport

Location: Martinsburg, PA, United States Lat: 40.3
Local Time: 10:52 PM EST ( 3:52 GMT) Lon: -78.317
Time Zone: US/Eastern Elev: 1502 ft

Show me the last for .
Show Coded

Time T Td Feel RH Dir Speed Gust Alt SLP Vis Weather Sky Remarks
2017-11-21 21:53 44 25 - 46 - Calm - 29.95 29.97 10 SCT065 None
2017-11-21 20:53 47 24 45 40 260° 5 - 29.95 29.97 10 CLR None
2017-11-21 19:53 45 25 - 45 - Calm - 29.95 29.97 10 CLR None
2017-11-21 18:53 48 25 45 40 180° 6 - 29.94 29.97 10 CLR 6-hr Min Temp (7pm): 43.0°F
6-hr Max Temp (7pm): 59.0°F
2017-11-21 17:53 48 25 44 40 200° 8 - 29.95 29.97 10 CLR None
2017-11-21 16:53 50 28 47 42 200° 8 - 29.92 29.95 10 CLR None
2017-11-21 15:53 57 26 - 30 200° 13 - 29.92 29.93 10 CLR None
2017-11-21 14:53 58 26 - 29 200° 14 - 29.92 29.93 10 CLR None
2017-11-21 13:53 57 25 - 28 230° 16 24 29.92 29.94 10 CLR Peak wind: 31 mph (27 kts) from 220° at 59 min
2017-11-21 12:53 56 25 - 30 230° 23 35 29.94 29.95 10 CLR Peak wind: 34 mph (30 kts) from 230° at 45 min
6-hr Min Temp (1pm): 32.0°F
6-hr Max Temp (1pm): 57.9°F
2017-11-21 11:53 55 26 - 32 220° 17 26 29.96 29.97 10 CLR None
2017-11-21 10:53 52 26 - 36 220° 20 - 30.00 30.02 10 CLR None
2017-11-21 09:53 46 24 40 41 220° 13 - 30.02 30.05 10 CLR None
2017-11-21 08:53 40 24 37 52 230° 5 - 30.02 30.06 10 CLR None
2017-11-21 07:53 38 20 33 47 230° 6 - 30.02 30.06 10 CLR None
2017-11-21 06:53 34 20 30 55 280° 5 - 30.01 30.05 10 CLR 6-hr Min Temp (7am): 32.0°F
6-hr Max Temp (7am): 39.0°F
2017-11-21 05:53 34 20 31 55 280° 3 - 30.00 30.04 10 CLR None
2017-11-21 04:53 33 21 - 60 - Calm - 30.01 30.05 10 CLR None
2017-11-21 03:53 33 22 - 63 - Calm - 30.01 30.03 10 CLR None
2017-11-21 02:53 33 22 29 63 300° 5 - 30.03 30.06 10 CLR None
2017-11-21 01:53 35 23 28 61 210° 9 - 30.03 30.06 10 CLR None
2017-11-21 00:53 39 21 37 48 210° 3 - 30.05 30.08 10 CLR 6-hr Min Temp (1am): 35.1°F
6-hr Max Temp (1am): 42.1°F
2017-11-20 23:53 40 21 37 46 220° 5 - 30.07 30.10 10 CLR 24-hr Min Temp (12am): 30.9°F
24-hr Max Temp (12am): 45.0°F
2017-11-20 22:53 39 21 35 48 210° 6 - 30.07 30.11 10 CLR None

Support USWX by starting your Amazon purchase here.